Kipling, North Carolina
Current Conditions -  °F | °C
As of 2:35 PM on Monday 20 Oct 2014 (Local Time) from KHRJ Reporting Station
Clear Clear  
Wind Chill: 71°   Ceiling: Unl
Heat Index: 71°   Visibility: 10mi
Dew Point: 42°   Wind: 7mph
Humidity: 36%   Direction: 210°SSW
Pressure: 30.04"   Gusts: NA
Location:  35.48°N, 78.82°W
Report Text: KHRJ 201835Z AUTO 21006KT 180V240 10SM CLR 21/06 A3004 RMK AO2 T02140056
Loading
Personal Weather Stations






























Interactive Weather Map
Tropical Storm Tracking
New forecast layout! Learn more

10-Day Weather Forecast

Advertisements
Track Severe Weather on mobile